sensor_id;sensor_type;location;lat;lon;timestamp;temperature;humidity
7290;DHT22;63176;52.678;13.250;2024-01-11T00:00:29;-5.70;99.90
7290;DHT22;63176;52.678;13.250;2024-01-11T00:02:55;-5.70;99.90
7290;DHT22;63176;52.678;13.250;2024-01-11T00:05:21;-5.50;99.90
7290;DHT22;63176;52.678;13.250;2024-01-11T00:07:47;-5.70;99.90
7290;DHT22;63176;52.678;13.250;2024-01-11T00:10:13;-5.60;99.90
7290;DHT22;63176;52.678;13.250;2024-01-11T00:12:38;-5.50;99.90
7290;DHT22;63176;52.678;13.250;2024-01-11T00:15:04;-5.50;99.90
7290;DHT22;63176;52.678;13.250;2024-01-11T00:17:31;-5.50;99.90
7290;DHT22;63176;52.678;13.250;2024-01-11T00:19:56;-5.50;99.90
7290;DHT22;63176;52.678;13.250;2024-01-11T00:22:22;-5.50;99.90
7290;DHT22;63176;52.678;13.250;2024-01-11T00:24:47;-5.40;99.90
7290;DHT22;63176;52.678;13.250;2024-01-11T00:27:13;-5.20;99.90
7290;DHT22;63176;52.678;13.250;2024-01-11T00:29:39;-5.30;99.90
7290;DHT22;63176;52.678;13.250;2024-01-11T00:32:04;-5.20;99.90
7290;DHT22;63176;52.678;13.250;2024-01-11T00:34:30;-5.20;99.90
7290;DHT22;63176;52.678;13.250;2024-01-11T00:36:56;-5.20;99.90
7290;DHT22;63176;52.678;13.250;2024-01-11T00:39:21;-5.10;99.90
7290;DHT22;63176;52.678;13.250;2024-01-11T00:41:47;-5.10;99.90
7290;DHT22;63176;52.678;13.250;2024-01-11T00:44:13;-5.00;99.90
7290;DHT22;63176;52.678;13.250;2024-01-11T00:46:39;-4.90;99.90
7290;DHT22;63176;52.678;13.250;2024-01-11T00:49:06;-4.90;99.90
7290;DHT22;63176;52.678;13.250;2024-01-11T00:51:32;-4.80;99.90
7290;DHT22;63176;52.678;13.250;2024-01-11T00:53:58;-4.80;99.90
7290;DHT22;63176;52.678;13.250;2024-01-11T00:56:23;-4.80;99.90
7290;DHT22;63176;52.678;13.250;2024-01-11T00:58:49;-4.70;99.90
7290;DHT22;63176;52.678;13.250;2024-01-11T01:01:15;-4.70;99.90
7290;DHT22;63176;52.678;13.250;2024-01-11T01:03:40;-4.70;99.90
7290;DHT22;63176;52.678;13.250;2024-01-11T01:06:06;-4.60;99.90
7290;DHT22;63176;52.678;13.250;2024-01-11T01:08:32;-4.60;99.90
7290;DHT22;63176;52.678;13.250;2024-01-11T01:10:58;-4.70;99.90
7290;DHT22;63176;52.678;13.250;2024-01-11T01:13:23;-4.60;99.90
7290;DHT22;63176;52.678;13.250;2024-01-11T01:15:49;-4.70;99.90
7290;DHT22;63176;52.678;13.250;2024-01-11T01:18:15;-4.80;99.90
7290;DHT22;63176;52.678;13.250;2024-01-11T01:20:40;-4.80;99.90
7290;DHT22;63176;52.678;13.250;2024-01-11T01:23:06;-4.80;99.90
7290;DHT22;63176;52.678;13.250;2024-01-11T01:25:32;-4.80;99.90
7290;DHT22;63176;52.678;13.250;2024-01-11T01:28:00;-4.70;99.90
7290;DHT22;63176;52.678;13.250;2024-01-11T01:30:27;-4.70;99.90
7290;DHT22;63176;52.678;13.250;2024-01-11T01:32:53;-4.70;99.90
7290;DHT22;63176;52.678;13.250;2024-01-11T01:35:18;-4.60;99.90
7290;DHT22;63176;52.678;13.250;2024-01-11T01:37:44;-4.70;99.90
7290;DHT22;63176;52.678;13.250;2024-01-11T01:40:11;-4.70;99.90
7290;DHT22;63176;52.678;13.250;2024-01-11T01:42:44;-4.60;99.90
7290;DHT22;63176;52.678;13.250;2024-01-11T01:45:10;-4.50;99.90
7290;DHT22;63176;52.678;13.250;2024-01-11T01:47:38;-4.50;99.90
7290;DHT22;63176;52.678;13.250;2024-01-11T01:50:06;-4.50;99.90
7290;DHT22;63176;52.678;13.250;2024-01-11T01:52:32;-4.50;99.90
7290;DHT22;63176;52.678;13.250;2024-01-11T01:54:58;-4.50;99.90
7290;DHT22;63176;52.678;13.250;2024-01-11T01:57:24;-4.40;99.90
7290;DHT22;63176;52.678;13.250;2024-01-11T01:59:52;-4.40;99.90
7290;DHT22;63176;52.678;13.250;2024-01-11T02:02:20;-4.30;99.90
7290;DHT22;63176;52.678;13.250;2024-01-11T02:04:46;-4.30;99.90
7290;DHT22;63176;52.678;13.250;2024-01-11T02:07:13;-4.20;99.90
7290;DHT22;63176;52.678;13.250;2024-01-11T02:09:40;-4.10;99.90
7290;DHT22;63176;52.678;13.250;2024-01-11T02:12:06;-4.10;99.90
7290;DHT22;63176;52.678;13.250;2024-01-11T02:14:34;-4.00;99.90
7290;DHT22;63176;52.678;13.250;2024-01-11T02:17:02;-4.00;99.90
7290;DHT22;63176;52.678;13.250;2024-01-11T02:19:28;-4.00;99.90
7290;DHT22;63176;52.678;13.250;2024-01-11T02:21:54;-3.90;99.90
7290;DHT22;63176;52.678;13.250;2024-01-11T02:24:20;-3.90;99.90
7290;DHT22;63176;52.678;13.250;2024-01-11T02:26:59;-3.90;99.90
7290;DHT22;63176;52.678;13.250;2024-01-11T02:29:28;-3.80;99.90
7290;DHT22;63176;52.678;13.250;2024-01-11T02:31:55;-3.80;99.90
7290;DHT22;63176;52.678;13.250;2024-01-11T02:34:22;-3.70;99.90
7290;DHT22;63176;52.678;13.250;2024-01-11T02:36:48;-3.70;99.90
7290;DHT22;63176;52.678;13.250;2024-01-11T02:39:16;-3.70;99.90
7290;DHT22;63176;52.678;13.250;2024-01-11T02:41:43;-3.70;99.90
7290;DHT22;63176;52.678;13.250;2024-01-11T02:44:09;-3.70;99.90
7290;DHT22;63176;52.678;13.250;2024-01-11T02:46:35;-3.70;99.90
7290;DHT22;63176;52.678;13.250;2024-01-11T02:49:00;-3.60;99.90
7290;DHT22;63176;52.678;13.250;2024-01-11T02:51:26;-3.70;99.90
7290;DHT22;63176;52.678;13.250;2024-01-11T02:53:52;-3.60;99.90
7290;DHT22;63176;52.678;13.250;2024-01-11T02:56:18;-3.70;99.90
7290;DHT22;63176;52.678;13.250;2024-01-11T02:58:43;-3.70;99.90
7290;DHT22;63176;52.678;13.250;2024-01-11T03:01:09;-3.70;99.90
7290;DHT22;63176;52.678;13.250;2024-01-11T03:03:34;-3.60;99.90
7290;DHT22;63176;52.678;13.250;2024-01-11T03:06:01;-3.60;99.90
7290;DHT22;63176;52.678;13.250;2024-01-11T03:08:26;-3.60;99.90
7290;DHT22;63176;52.678;13.250;2024-01-11T03:10:52;-3.60;99.90
7290;DHT22;63176;52.678;13.250;2024-01-11T03:13:18;-3.50;99.90
7290;DHT22;63176;52.678;13.250;2024-01-11T03:15:44;-3.60;99.90
7290;DHT22;63176;52.678;13.250;2024-01-11T03:18:09;-3.50;99.90
7290;DHT22;63176;52.678;13.250;2024-01-11T03:20:35;-3.50;99.90
7290;DHT22;63176;52.678;13.250;2024-01-11T03:23:01;-3.50;99.90
7290;DHT22;63176;52.678;13.250;2024-01-11T03:25:27;-3.50;99.90
7290;DHT22;63176;52.678;13.250;2024-01-11T03:27:54;-3.40;99.90
7290;DHT22;63176;52.678;13.250;2024-01-11T03:30:20;-3.40;99.90
7290;DHT22;63176;52.678;13.250;2024-01-11T03:32:45;-3.50;99.90
7290;DHT22;63176;52.678;13.250;2024-01-11T03:35:11;-3.50;99.90
7290;DHT22;63176;52.678;13.250;2024-01-11T03:37:37;-3.50;99.90
7290;DHT22;63176;52.678;13.250;2024-01-11T03:40:03;-3.60;99.90
7290;DHT22;63176;52.678;13.250;2024-01-11T03:42:29;-3.50;99.90
7290;DHT22;63176;52.678;13.250;2024-01-11T03:44:54;-3.50;99.90
7290;DHT22;63176;52.678;13.250;2024-01-11T03:47:23;-3.60;99.90
7290;DHT22;63176;52.678;13.250;2024-01-11T03:49:49;-3.60;99.90
7290;DHT22;63176;52.678;13.250;2024-01-11T03:52:15;-3.60;99.90
7290;DHT22;63176;52.678;13.250;2024-01-11T03:54:40;-3.60;99.90
7290;DHT22;63176;52.678;13.250;2024-01-11T03:57:06;-3.60;99.90
7290;DHT22;63176;52.678;13.250;2024-01-11T03:59:32;-3.50;99.90
7290;DHT22;63176;52.678;13.250;2024-01-11T04:01:58;-3.50;99.90
7290;DHT22;63176;52.678;13.250;2024-01-11T04:04:24;-3.50;99.90
7290;DHT22;63176;52.678;13.250;2024-01-11T04:06:51;-3.60;99.90
7290;DHT22;63176;52.678;13.250;2024-01-11T04:09:17;-3.50;99.90
7290;DHT22;63176;52.678;13.250;2024-01-11T04:11:43;-3.50;99.90
7290;DHT22;63176;52.678;13.250;2024-01-11T04:14:09;-3.50;99.90
7290;DHT22;63176;52.678;13.250;2024-01-11T04:16:40;-3.50;99.90
7290;DHT22;63176;52.678;13.250;2024-01-11T04:19:06;-3.40;99.90
7290;DHT22;63176;52.678;13.250;2024-01-11T04:21:32;-3.40;99.90
7290;DHT22;63176;52.678;13.250;2024-01-11T04:23:58;-3.40;99.90
7290;DHT22;63176;52.678;13.250;2024-01-11T04:26:23;-3.40;99.90
7290;DHT22;63176;52.678;13.250;2024-01-11T04:28:51;-3.40;99.90
7290;DHT22;63176;52.678;13.250;2024-01-11T04:31:17;-3.40;99.90
7290;DHT22;63176;52.678;13.250;2024-01-11T04:33:46;-3.40;99.90
7290;DHT22;63176;52.678;13.250;2024-01-11T04:36:12;-3.40;99.90
7290;DHT22;63176;52.678;13.250;2024-01-11T04:38:38;-3.30;99.90
7290;DHT22;63176;52.678;13.250;2024-01-11T04:41:14;-3.30;99.90
7290;DHT22;63176;52.678;13.250;2024-01-11T04:43:41;-3.30;99.90
7290;DHT22;63176;52.678;13.250;2024-01-11T04:46:19;-3.20;99.90
7290;DHT22;63176;52.678;13.250;2024-01-11T04:48:45;-3.20;99.90
7290;DHT22;63176;52.678;13.250;2024-01-11T04:51:12;-3.20;99.90
7290;DHT22;63176;52.678;13.250;2024-01-11T04:53:42;-3.20;99.90
7290;DHT22;63176;52.678;13.250;2024-01-11T04:56:09;-3.20;99.90
7290;DHT22;63176;52.678;13.250;2024-01-11T04:58:36;-3.20;99.90
7290;DHT22;63176;52.678;13.250;2024-01-11T05:01:04;-3.20;99.90
7290;DHT22;63176;52.678;13.250;2024-01-11T05:03:30;-3.20;99.90
7290;DHT22;63176;52.678;13.250;2024-01-11T05:05:57;-3.10;99.90
7290;DHT22;63176;52.678;13.250;2024-01-11T05:08:23;-3.10;99.90
7290;DHT22;63176;52.678;13.250;2024-01-11T05:10:49;-3.00;99.90
7290;DHT22;63176;52.678;13.250;2024-01-11T05:13:15;-3.00;99.90
7290;DHT22;63176;52.678;13.250;2024-01-11T05:15:41;-3.00;99.90
7290;DHT22;63176;52.678;13.250;2024-01-11T05:18:07;-3.00;99.90
7290;DHT22;63176;52.678;13.250;2024-01-11T05:20:32;-3.00;99.90
7290;DHT22;63176;52.678;13.250;2024-01-11T05:22:58;-2.90;99.90
7290;DHT22;63176;52.678;13.250;2024-01-11T05:25:26;-2.90;99.90
7290;DHT22;63176;52.678;13.250;2024-01-11T05:27:52;-2.80;99.90
7290;DHT22;63176;52.678;13.250;2024-01-11T05:30:18;-2.80;99.90
7290;DHT22;63176;52.678;13.250;2024-01-11T05:32:44;-2.80;99.90
7290;DHT22;63176;52.678;13.250;2024-01-11T05:35:09;-2.80;99.90
7290;DHT22;63176;52.678;13.250;2024-01-11T05:37:36;-2.80;99.90
7290;DHT22;63176;52.678;13.250;2024-01-11T05:40:02;-2.80;99.90
7290;DHT22;63176;52.678;13.250;2024-01-11T05:42:28;-2.70;99.90
7290;DHT22;63176;52.678;13.250;2024-01-11T05:44:54;-2.70;99.90
7290;DHT22;63176;52.678;13.250;2024-01-11T05:47:20;-2.70;99.90
7290;DHT22;63176;52.678;13.250;2024-01-11T05:49:45;-2.60;99.90
7290;DHT22;63176;52.678;13.250;2024-01-11T05:52:11;-2.60;99.90
7290;DHT22;63176;52.678;13.250;2024-01-11T05:54:37;-2.60;99.90
7290;DHT22;63176;52.678;13.250;2024-01-11T05:57:02;-2.60;99.90
7290;DHT22;63176;52.678;13.250;2024-01-11T05:59:28;-2.50;99.90
7290;DHT22;63176;52.678;13.250;2024-01-11T06:01:54;-2.50;99.90
7290;DHT22;63176;52.678;13.250;2024-01-11T06:04:20;-2.40;99.90
7290;DHT22;63176;52.678;13.250;2024-01-11T06:06:45;-2.40;99.90
7290;DHT22;63176;52.678;13.250;2024-01-11T06:09:11;-2.30;99.90
7290;DHT22;63176;52.678;13.250;2024-01-11T06:11:36;-2.30;99.90
7290;DHT22;63176;52.678;13.250;2024-01-11T06:14:02;-2.30;99.90
7290;DHT22;63176;52.678;13.250;2024-01-11T06:16:28;-2.30;99.90
7290;DHT22;63176;52.678;13.250;2024-01-11T06:18:54;-2.30;99.90
7290;DHT22;63176;52.678;13.250;2024-01-11T06:21:20;-2.30;99.90
7290;DHT22;63176;52.678;13.250;2024-01-11T06:23:46;-2.20;99.90
7290;DHT22;63176;52.678;13.250;2024-01-11T06:26:11;-2.20;99.90
7290;DHT22;63176;52.678;13.250;2024-01-11T06:28:37;-2.20;99.90
7290;DHT22;63176;52.678;13.250;2024-01-11T06:31:03;-2.20;99.90
7290;DHT22;63176;52.678;13.250;2024-01-11T06:33:29;-2.20;99.90
7290;DHT22;63176;52.678;13.250;2024-01-11T06:35:54;-2.10;99.90
7290;DHT22;63176;52.678;13.250;2024-01-11T06:38:21;-2.10;99.90
7290;DHT22;63176;52.678;13.250;2024-01-11T06:40:48;-2.10;99.90
7290;DHT22;63176;52.678;13.250;2024-01-11T06:43:14;-2.00;99.90
7290;DHT22;63176;52.678;13.250;2024-01-11T06:45:43;-2.00;99.90
7290;DHT22;63176;52.678;13.250;2024-01-11T06:48:09;-2.00;99.90
7290;DHT22;63176;52.678;13.250;2024-01-11T06:50:34;-2.00;99.90
7290;DHT22;63176;52.678;13.250;2024-01-11T06:53:01;-2.00;99.90
7290;DHT22;63176;52.678;13.250;2024-01-11T06:55:27;-2.00;99.90
7290;DHT22;63176;52.678;13.250;2024-01-11T06:57:53;-1.90;99.90
7290;DHT22;63176;52.678;13.250;2024-01-11T07:00:19;-1.90;99.90
7290;DHT22;63176;52.678;13.250;2024-01-11T07:02:45;-1.90;99.90
7290;DHT22;63176;52.678;13.250;2024-01-11T07:05:10;-1.80;99.90
7290;DHT22;63176;52.678;13.250;2024-01-11T07:07:36;-1.80;99.90
7290;DHT22;63176;52.678;13.250;2024-01-11T07:10:02;-1.80;99.90
7290;DHT22;63176;52.678;13.250;2024-01-11T07:12:31;-1.70;99.90
7290;DHT22;63176;52.678;13.250;2024-01-11T07:14:57;-1.70;99.90
7290;DHT22;63176;52.678;13.250;2024-01-11T07:17:23;-1.70;99.90
7290;DHT22;63176;52.678;13.250;2024-01-11T07:19:49;-1.70;99.90
7290;DHT22;63176;52.678;13.250;2024-01-11T07:22:14;-1.70;99.90
7290;DHT22;63176;52.678;13.250;2024-01-11T07:24:40;-1.60;99.90
7290;DHT22;63176;52.678;13.250;2024-01-11T07:27:06;-1.60;99.90
7290;DHT22;63176;52.678;13.250;2024-01-11T07:29:33;-1.60;99.90
7290;DHT22;63176;52.678;13.250;2024-01-11T07:31:59;-1.60;99.90
7290;DHT22;63176;52.678;13.250;2024-01-11T07:34:26;-1.50;99.90
7290;DHT22;63176;52.678;13.250;2024-01-11T07:36:52;-1.50;99.90
7290;DHT22;63176;52.678;13.250;2024-01-11T07:39:19;-1.40;99.90
7290;DHT22;63176;52.678;13.250;2024-01-11T07:41:44;-1.40;99.90
7290;DHT22;63176;52.678;13.250;2024-01-11T07:44:13;-1.40;99.90
7290;DHT22;63176;52.678;13.250;2024-01-11T07:46:39;-1.30;99.90
7290;DHT22;63176;52.678;13.250;2024-01-11T07:49:05;-1.30;99.90
7290;DHT22;63176;52.678;13.250;2024-01-11T07:51:31;-1.30;99.90
7290;DHT22;63176;52.678;13.250;2024-01-11T07:53:57;-1.30;99.90
7290;DHT22;63176;52.678;13.250;2024-01-11T07:56:22;-1.20;99.90
7290;DHT22;63176;52.678;13.250;2024-01-11T07:58:48;-1.20;99.90
7290;DHT22;63176;52.678;13.250;2024-01-11T08:01:15;-1.20;99.90
7290;DHT22;63176;52.678;13.250;2024-01-11T08:03:41;-1.20;99.90
7290;DHT22;63176;52.678;13.250;2024-01-11T08:06:07;-1.20;99.90
7290;DHT22;63176;52.678;13.250;2024-01-11T08:08:34;-1.10;99.90
7290;DHT22;63176;52.678;13.250;2024-01-11T08:11:00;-1.10;99.90
7290;DHT22;63176;52.678;13.250;2024-01-11T08:13:28;-1.10;99.90
7290;DHT22;63176;52.678;13.250;2024-01-11T08:15:56;-1.00;99.90
7290;DHT22;63176;52.678;13.250;2024-01-11T08:18:23;-1.00;99.90
7290;DHT22;63176;52.678;13.250;2024-01-11T08:20:49;-1.00;99.90
7290;DHT22;63176;52.678;13.250;2024-01-11T08:23:14;-1.00;99.90
7290;DHT22;63176;52.678;13.250;2024-01-11T08:25:41;-0.90;99.90
7290;DHT22;63176;52.678;13.250;2024-01-11T08:28:07;-0.90;99.90
7290;DHT22;63176;52.678;13.250;2024-01-11T08:30:33;-0.90;99.90
7290;DHT22;63176;52.678;13.250;2024-01-11T08:32:59;-0.90;99.90
7290;DHT22;63176;52.678;13.250;2024-01-11T08:35:25;-0.80;99.90
7290;DHT22;63176;52.678;13.250;2024-01-11T08:37:50;-0.80;99.90
7290;DHT22;63176;52.678;13.250;2024-01-11T08:40:16;-0.80;99.90
7290;DHT22;63176;52.678;13.250;2024-01-11T08:42:42;-0.80;99.90
7290;DHT22;63176;52.678;13.250;2024-01-11T08:45:08;-0.80;99.90
7290;DHT22;63176;52.678;13.250;2024-01-11T08:47:35;-0.80;99.90
7290;DHT22;63176;52.678;13.250;2024-01-11T08:50:01;-0.80;99.90
7290;DHT22;63176;52.678;13.250;2024-01-11T08:52:31;-0.80;99.90
7290;DHT22;63176;52.678;13.250;2024-01-11T08:54:57;-0.70;99.90
7290;DHT22;63176;52.678;13.250;2024-01-11T08:57:23;-0.70;99.90
7290;DHT22;63176;52.678;13.250;2024-01-11T08:59:49;-0.70;99.90
7290;DHT22;63176;52.678;13.250;2024-01-11T09:02:14;-0.70;99.90
7290;DHT22;63176;52.678;13.250;2024-01-11T09:04:40;-0.70;99.90
7290;DHT22;63176;52.678;13.250;2024-01-11T09:07:06;-0.60;99.90
7290;DHT22;63176;52.678;13.250;2024-01-11T09:09:32;-0.60;99.90
7290;DHT22;63176;52.678;13.250;2024-01-11T09:11:57;-0.60;99.90
7290;DHT22;63176;52.678;13.250;2024-01-11T09:14:23;-0.60;99.90
7290;DHT22;63176;52.678;13.250;2024-01-11T09:16:49;-0.60;99.90
7290;DHT22;63176;52.678;13.250;2024-01-11T09:19:15;-0.60;99.90
7290;DHT22;63176;52.678;13.250;2024-01-11T09:21:41;-0.60;99.90
7290;DHT22;63176;52.678;13.250;2024-01-11T09:24:07;-0.50;99.90
7290;DHT22;63176;52.678;13.250;2024-01-11T09:26:33;-0.50;99.90
7290;DHT22;63176;52.678;13.250;2024-01-11T09:28:59;-0.50;99.90
7290;DHT22;63176;52.678;13.250;2024-01-11T09:31:25;-0.50;99.90
7290;DHT22;63176;52.678;13.250;2024-01-11T09:33:50;-0.50;99.90
7290;DHT22;63176;52.678;13.250;2024-01-11T09:36:16;-0.50;99.90
7290;DHT22;63176;52.678;13.250;2024-01-11T09:38:42;-0.40;99.90
7290;DHT22;63176;52.678;13.250;2024-01-11T09:41:12;-0.40;99.90
7290;DHT22;63176;52.678;13.250;2024-01-11T09:43:40;-0.40;99.90
7290;DHT22;63176;52.678;13.250;2024-01-11T09:46:07;-0.40;99.90
7290;DHT22;63176;52.678;13.250;2024-01-11T09:48:37;-0.40;99.90
7290;DHT22;63176;52.678;13.250;2024-01-11T09:51:04;-0.40;99.90
7290;DHT22;63176;52.678;13.250;2024-01-11T09:53:33;-0.40;99.90
7290;DHT22;63176;52.678;13.250;2024-01-11T09:56:00;-0.40;99.90
7290;DHT22;63176;52.678;13.250;2024-01-11T09:58:26;-0.40;99.90
7290;DHT22;63176;52.678;13.250;2024-01-11T10:00:56;-0.40;99.90
7290;DHT22;63176;52.678;13.250;2024-01-11T10:03:23;-0.40;99.90
7290;DHT22;63176;52.678;13.250;2024-01-11T10:05:50;-0.40;99.90
7290;DHT22;63176;52.678;13.250;2024-01-11T10:08:22;-0.40;99.90
7290;DHT22;63176;52.678;13.250;2024-01-11T10:10:49;-0.30;99.90
7290;DHT22;63176;52.678;13.250;2024-01-11T10:13:15;-0.30;99.90
7290;DHT22;63176;52.678;13.250;2024-01-11T10:15:42;-0.30;99.90
7290;DHT22;63176;52.678;13.250;2024-01-11T10:18:08;-0.30;99.90
7290;DHT22;63176;52.678;13.250;2024-01-11T10:20:34;-0.30;99.90
7290;DHT22;63176;52.678;13.250;2024-01-11T10:23:00;-0.30;99.90
7290;DHT22;63176;52.678;13.250;2024-01-11T10:25:26;-0.30;99.90
7290;DHT22;63176;52.678;13.250;2024-01-11T10:27:52;-0.30;99.90
7290;DHT22;63176;52.678;13.250;2024-01-11T10:30:18;-0.30;99.90
7290;DHT22;63176;52.678;13.250;2024-01-11T10:32:51;-0.30;99.90
7290;DHT22;63176;52.678;13.250;2024-01-11T10:35:17;-0.30;99.90
7290;DHT22;63176;52.678;13.250;2024-01-11T10:37:44;-0.30;99.90
7290;DHT22;63176;52.678;13.250;2024-01-11T10:40:10;-0.30;99.90
7290;DHT22;63176;52.678;13.250;2024-01-11T10:42:45;-0.30;99.90
7290;DHT22;63176;52.678;13.250;2024-01-11T10:45:16;-0.30;99.90
7290;DHT22;63176;52.678;13.250;2024-01-11T10:47:50;-0.20;99.90
7290;DHT22;63176;52.678;13.250;2024-01-11T10:50:16;-0.20;99.90
7290;DHT22;63176;52.678;13.250;2024-01-11T10:55:19;-0.10;99.90
7290;DHT22;63176;52.678;13.250;2024-01-11T10:57:47;-0.10;99.90
7290;DHT22;63176;52.678;13.250;2024-01-11T11:00:14;-0.10;99.90
7290;DHT22;63176;52.678;13.250;2024-01-11T11:02:41;-0.10;99.90
7290;DHT22;63176;52.678;13.250;2024-01-11T11:05:07;-0.20;99.90
7290;DHT22;63176;52.678;13.250;2024-01-11T11:07:35;-0.10;99.90
7290;DHT22;63176;52.678;13.250;2024-01-11T11:10:02;-0.10;99.90
7290;DHT22;63176;52.678;13.250;2024-01-11T11:12:32;-0.10;99.90
7290;DHT22;63176;52.678;13.250;2024-01-11T11:14:58;-0.10;99.90
7290;DHT22;63176;52.678;13.250;2024-01-11T11:17:25;-0.20;99.90
7290;DHT22;63176;52.678;13.250;2024-01-11T11:19:52;-0.10;99.90
7290;DHT22;63176;52.678;13.250;2024-01-11T11:22:19;-0.10;99.90
7290;DHT22;63176;52.678;13.250;2024-01-11T11:24:45;-0.10;99.90
7290;DHT22;63176;52.678;13.250;2024-01-11T11:27:15;-0.10;99.90
7290;DHT22;63176;52.678;13.250;2024-01-11T11:29:41;-0.10;99.90
7290;DHT22;63176;52.678;13.250;2024-01-11T11:32:10;-0.10;99.90
7290;DHT22;63176;52.678;13.250;2024-01-11T11:34:46;-0.10;99.90
7290;DHT22;63176;52.678;13.250;2024-01-11T11:37:12;-0.10;99.90
7290;DHT22;63176;52.678;13.250;2024-01-11T11:39:41;-0.20;99.90
7290;DHT22;63176;52.678;13.250;2024-01-11T11:42:07;-0.10;99.90
7290;DHT22;63176;52.678;13.250;2024-01-11T11:44:33;-0.10;99.90
7290;DHT22;63176;52.678;13.250;2024-01-11T11:47:21;-0.10;99.90
7290;DHT22;63176;52.678;13.250;2024-01-11T11:52:32;-0.10;99.90
7290;DHT22;63176;52.678;13.250;2024-01-11T11:54:59;0.00;99.90
7290;DHT22;63176;52.678;13.250;2024-01-11T11:57:25;0.00;99.90
7290;DHT22;63176;52.678;13.250;2024-01-11T11:59:57;0.00;99.90
7290;DHT22;63176;52.678;13.250;2024-01-11T12:02:25;0.00;99.90
7290;DHT22;63176;52.678;13.250;2024-01-11T12:04:51;0.00;99.90
7290;DHT22;63176;52.678;13.250;2024-01-11T12:07:20;0.00;1.00
7290;DHT22;63176;52.678;13.250;2024-01-11T12:09:46;0.00;1.00
7290;DHT22;63176;52.678;13.250;2024-01-11T12:12:12;0.00;1.00
7290;DHT22;63176;52.678;13.250;2024-01-11T12:14:38;0.10;1.00
7290;DHT22;63176;52.678;13.250;2024-01-11T12:17:06;0.10;1.00
7290;DHT22;63176;52.678;13.250;2024-01-11T12:19:32;0.10;1.00
7290;DHT22;63176;52.678;13.250;2024-01-11T12:21:59;0.10;1.00
7290;DHT22;63176;52.678;13.250;2024-01-11T12:24:24;0.10;1.00
7290;DHT22;63176;52.678;13.250;2024-01-11T12:26:50;0.10;1.00
7290;DHT22;63176;52.678;13.250;2024-01-11T12:29:19;0.20;1.00
7290;DHT22;63176;52.678;13.250;2024-01-11T12:31:45;0.20;1.00
7290;DHT22;63176;52.678;13.250;2024-01-11T12:34:12;0.20;1.00
7290;DHT22;63176;52.678;13.250;2024-01-11T12:36:38;0.20;1.00
7290;DHT22;63176;52.678;13.250;2024-01-11T12:39:04;0.30;1.00
7290;DHT22;63176;52.678;13.250;2024-01-11T12:41:32;0.30;1.00
7290;DHT22;63176;52.678;13.250;2024-01-11T12:43:58;0.30;1.00
7290;DHT22;63176;52.678;13.250;2024-01-11T12:46:24;0.30;1.00
7290;DHT22;63176;52.678;13.250;2024-01-11T12:48:50;0.30;1.00
7290;DHT22;63176;52.678;13.250;2024-01-11T12:51:17;0.30;1.00
7290;DHT22;63176;52.678;13.250;2024-01-11T12:53:45;0.40;1.00
7290;DHT22;63176;52.678;13.250;2024-01-11T12:56:15;0.40;1.00
7290;DHT22;63176;52.678;13.250;2024-01-11T12:58:41;0.40;1.00
7290;DHT22;63176;52.678;13.250;2024-01-11T13:01:08;0.40;1.00
7290;DHT22;63176;52.678;13.250;2024-01-11T13:03:54;0.40;1.00
7290;DHT22;63176;52.678;13.250;2024-01-11T13:06:21;0.40;1.00
7290;DHT22;63176;52.678;13.250;2024-01-11T13:08:47;0.40;1.00
7290;DHT22;63176;52.678;13.250;2024-01-11T13:11:13;0.40;1.00
7290;DHT22;63176;52.678;13.250;2024-01-11T13:13:41;0.40;1.00
7290;DHT22;63176;52.678;13.250;2024-01-11T13:16:07;0.40;1.00
7290;DHT22;63176;52.678;13.250;2024-01-11T13:18:36;0.40;1.00
7290;DHT22;63176;52.678;13.250;2024-01-11T13:21:02;0.40;1.00
7290;DHT22;63176;52.678;13.250;2024-01-11T13:23:28;0.40;1.00
7290;DHT22;63176;52.678;13.250;2024-01-11T13:25:54;0.40;1.00
7290;DHT22;63176;52.678;13.250;2024-01-11T13:28:19;0.40;1.00
7290;DHT22;63176;52.678;13.250;2024-01-11T13:30:45;0.30;1.00
7290;DHT22;63176;52.678;13.250;2024-01-11T13:33:11;0.30;1.00
7290;DHT22;63176;52.678;13.250;2024-01-11T13:35:38;0.30;1.00
7290;DHT22;63176;52.678;13.250;2024-01-11T13:38:05;0.30;1.00
7290;DHT22;63176;52.678;13.250;2024-01-11T13:40:31;0.30;1.00
7290;DHT22;63176;52.678;13.250;2024-01-11T13:42:58;0.30;1.00
7290;DHT22;63176;52.678;13.250;2024-01-11T13:45:24;0.30;1.00
7290;DHT22;63176;52.678;13.250;2024-01-11T13:47:51;0.30;1.00
7290;DHT22;63176;52.678;13.250;2024-01-11T13:50:18;0.20;1.00
7290;DHT22;63176;52.678;13.250;2024-01-11T13:52:44;0.20;1.00
7290;DHT22;63176;52.678;13.250;2024-01-11T13:55:11;0.20;1.00
7290;DHT22;63176;52.678;13.250;2024-01-11T13:57:37;0.20;1.00
7290;DHT22;63176;52.678;13.250;2024-01-11T14:00:04;0.10;1.00
7290;DHT22;63176;52.678;13.250;2024-01-11T14:02:30;0.20;1.00
7290;DHT22;63176;52.678;13.250;2024-01-11T14:04:56;0.20;1.00
7290;DHT22;63176;52.678;13.250;2024-01-11T14:07:22;0.20;1.00
7290;DHT22;63176;52.678;13.250;2024-01-11T14:09:47;0.20;1.00
7290;DHT22;63176;52.678;13.250;2024-01-11T14:12:13;0.20;1.00
7290;DHT22;63176;52.678;13.250;2024-01-11T14:14:41;0.20;1.00
7290;DHT22;63176;52.678;13.250;2024-01-11T14:17:08;0.20;1.00
7290;DHT22;63176;52.678;13.250;2024-01-11T14:19:34;0.20;1.00
7290;DHT22;63176;52.678;13.250;2024-01-11T14:22:00;0.20;1.00
7290;DHT22;63176;52.678;13.250;2024-01-11T14:24:26;0.10;1.00
7290;DHT22;63176;52.678;13.250;2024-01-11T14:26:52;0.10;1.00
7290;DHT22;63176;52.678;13.250;2024-01-11T14:29:17;0.10;1.00
7290;DHT22;63176;52.678;13.250;2024-01-11T14:31:43;0.10;1.00
7290;DHT22;63176;52.678;13.250;2024-01-11T14:34:09;0.20;1.00
7290;DHT22;63176;52.678;13.250;2024-01-11T14:36:36;0.20;1.00
7290;DHT22;63176;52.678;13.250;2024-01-11T14:39:03;0.20;1.00
7290;DHT22;63176;52.678;13.250;2024-01-11T14:41:31;0.10;1.00
7290;DHT22;63176;52.678;13.250;2024-01-11T14:43:57;0.10;1.00
7290;DHT22;63176;52.678;13.250;2024-01-11T14:46:26;0.10;1.00
7290;DHT22;63176;52.678;13.250;2024-01-11T14:48:52;0.10;1.00
7290;DHT22;63176;52.678;13.250;2024-01-11T14:51:18;0.10;1.00
7290;DHT22;63176;52.678;13.250;2024-01-11T14:53:44;0.10;1.00
7290;DHT22;63176;52.678;13.250;2024-01-11T14:56:11;0.20;1.00
7290;DHT22;63176;52.678;13.250;2024-01-11T14:58:39;0.20;1.00
7290;DHT22;63176;52.678;13.250;2024-01-11T15:01:05;0.20;1.00
7290;DHT22;63176;52.678;13.250;2024-01-11T15:03:31;0.20;1.00
7290;DHT22;63176;52.678;13.250;2024-01-11T15:05:56;0.20;1.00
7290;DHT22;63176;52.678;13.250;2024-01-11T15:08:22;0.20;1.00
7290;DHT22;63176;52.678;13.250;2024-01-11T15:10:48;0.20;1.00
7290;DHT22;63176;52.678;13.250;2024-01-11T15:13:14;0.20;1.00
7290;DHT22;63176;52.678;13.250;2024-01-11T15:15:40;0.20;1.00
7290;DHT22;63176;52.678;13.250;2024-01-11T15:18:06;0.20;1.00
7290;DHT22;63176;52.678;13.250;2024-01-11T15:20:32;0.20;1.00
7290;DHT22;63176;52.678;13.250;2024-01-11T15:22:57;0.20;1.00
7290;DHT22;63176;52.678;13.250;2024-01-11T15:25:23;0.20;1.00
7290;DHT22;63176;52.678;13.250;2024-01-11T15:27:50;0.20;1.00
7290;DHT22;63176;52.678;13.250;2024-01-11T15:30:16;0.30;1.00
7290;DHT22;63176;52.678;13.250;2024-01-11T15:32:44;0.30;1.00
7290;DHT22;63176;52.678;13.250;2024-01-11T15:35:10;0.30;1.00
7290;DHT22;63176;52.678;13.250;2024-01-11T15:37:38;0.30;1.00